sensor_id;sensor_type;location;lat;lon;timestamp;P1;durP1;ratioP1;P2;durP2;ratioP2
22015;SDS011;64992;51.698;-0.292;2023-03-01T00:10:28;5.57;;;3.13;;
22015;SDS011;64992;51.698;-0.292;2023-03-01T00:19:01;3.40;;;3.05;;
22015;SDS011;64992;51.698;-0.292;2023-03-01T00:21:27;4.75;;;3.13;;
22015;SDS011;64992;51.698;-0.292;2023-03-01T00:48:17;3.15;;;2.05;;
22015;SDS011;64992;51.698;-0.292;2023-03-01T00:56:50;3.38;;;2.30;;
22015;SDS011;64992;51.698;-0.292;2023-03-01T00:59:16;2.35;;;2.15;;
22015;SDS011;64992;51.698;-0.292;2023-03-01T01:13:41;3.95;;;2.22;;
22015;SDS011;64992;51.698;-0.292;2023-03-01T01:19:11;2.53;;;2.20;;
22015;SDS011;64992;51.698;-0.292;2023-03-01T01:33:52;4.70;;;1.90;;
22015;SDS011;64992;51.698;-0.292;2023-03-01T01:39:22;2.72;;;1.95;;
22015;SDS011;64992;51.698;-0.292;2023-03-01T01:47:36;2.20;;;2.05;;
22015;SDS011;64992;51.698;-0.292;2023-03-01T01:50:18;5.43;;;2.08;;
22015;SDS011;64992;51.698;-0.292;2023-03-01T02:01:52;3.58;;;2.55;;
22015;SDS011;64992;51.698;-0.292;2023-03-01T02:13:03;4.03;;;3.10;;
22015;SDS011;64992;51.698;-0.292;2023-03-01T02:15:32;3.63;;;3.10;;
22015;SDS011;64992;51.698;-0.292;2023-03-01T02:27:04;4.32;;;3.58;;
22015;SDS011;64992;51.698;-0.292;2023-03-01T02:29:45;3.40;;;3.10;;
22015;SDS011;64992;51.698;-0.292;2023-03-01T02:56:18;6.30;;;4.43;;
22015;SDS011;64992;51.698;-0.292;2023-03-01T03:01:48;4.55;;;3.10;;
22015;SDS011;64992;51.698;-0.292;2023-03-01T03:43:52;7.32;;;3.58;;
22015;SDS011;64992;51.698;-0.292;2023-03-01T04:04:30;3.40;;;2.63;;
22015;SDS011;64992;51.698;-0.292;2023-03-01T04:10:00;3.45;;;3.05;;
22015;SDS011;64992;51.698;-0.292;2023-03-01T04:36:34;10.55;;;4.00;;
22015;SDS011;64992;51.698;-0.292;2023-03-01T04:42:10;5.78;;;3.03;;
22015;SDS011;64992;51.698;-0.292;2023-03-01T04:47:48;5.78;;;3.10;;
22015;SDS011;64992;51.698;-0.292;2023-03-01T04:53:09;6.85;;;3.70;;
22015;SDS011;64992;51.698;-0.292;2023-03-01T04:58:35;6.03;;;3.58;;
22015;SDS011;64992;51.698;-0.292;2023-03-01T05:07:11;4.13;;;2.55;;
22015;SDS011;64992;51.698;-0.292;2023-03-01T05:09:38;6.00;;;2.67;;
22015;SDS011;64992;51.698;-0.292;2023-03-01T05:12:21;5.68;;;2.95;;
22015;SDS011;64992;51.698;-0.292;2023-03-01T05:14:47;2.55;;;2.08;;
22015;SDS011;64992;51.698;-0.292;2023-03-01T05:19:52;4.38;;;3.25;;
22015;SDS011;64992;51.698;-0.292;2023-03-01T05:22:31;3.45;;;3.05;;
22015;SDS011;64992;51.698;-0.292;2023-03-01T05:37:03;5.63;;;3.50;;
22015;SDS011;64992;51.698;-0.292;2023-03-01T05:39:43;7.22;;;2.72;;
22015;SDS011;64992;51.698;-0.292;2023-03-01T05:45:12;5.22;;;3.45;;
22015;SDS011;64992;51.698;-0.292;2023-03-01T06:09:13;7.00;;;4.10;;
22015;SDS011;64992;51.698;-0.292;2023-03-01T06:11:39;5.53;;;3.25;;
22015;SDS011;64992;51.698;-0.292;2023-03-01T06:19:55;6.13;;;2.85;;
22015;SDS011;64992;51.698;-0.292;2023-03-01T06:22:26;7.85;;;3.47;;
22015;SDS011;64992;51.698;-0.292;2023-03-01T07:13:45;6.28;;;4.13;;
22015;SDS011;64992;51.698;-0.292;2023-03-01T07:22:04;10.20;;;4.88;;
22015;SDS011;64992;51.698;-0.292;2023-03-01T07:24:32;9.48;;;4.32;;
22015;SDS011;64992;51.698;-0.292;2023-03-01T07:35:40;6.80;;;4.38;;
22015;SDS011;64992;51.698;-0.292;2023-03-01T07:38:21;10.27;;;4.55;;
22015;SDS011;64992;51.698;-0.292;2023-03-01T07:40:47;7.30;;;4.15;;
22015;SDS011;64992;51.698;-0.292;2023-03-01T07:55:37;6.38;;;4.10;;
22015;SDS011;64992;51.698;-0.292;2023-03-01T08:59:03;5.68;;;2.72;;
22015;SDS011;64992;51.698;-0.292;2023-03-01T09:01:43;6.25;;;2.53;;
22015;SDS011;64992;51.698;-0.292;2023-03-01T09:22:26;2.95;;;2.53;;
22015;SDS011;64992;51.698;-0.292;2023-03-01T09:33:37;3.40;;;2.63;;
22015;SDS011;64992;51.698;-0.292;2023-03-01T09:47:54;6.47;;;3.10;;
22015;SDS011;64992;51.698;-0.292;2023-03-01T09:50:35;3.83;;;2.67;;
22015;SDS011;64992;51.698;-0.292;2023-03-01T10:10:48;5.25;;;2.55;;
22015;SDS011;64992;51.698;-0.292;2023-03-01T10:13:19;2.30;;;1.83;;
22015;SDS011;64992;51.698;-0.292;2023-03-01T10:15:51;2.63;;;2.43;;
22015;SDS011;64992;51.698;-0.292;2023-03-01T10:18:38;2.45;;;2.20;;
22015;SDS011;64992;51.698;-0.292;2023-03-01T10:33:17;5.80;;;2.15;;
22015;SDS011;64992;51.698;-0.292;2023-03-01T10:53:49;3.60;;;1.92;;
22015;SDS011;64992;51.698;-0.292;2023-03-01T11:48:07;3.00;;;1.75;;
22015;SDS011;64992;51.698;-0.292;2023-03-01T11:50:47;4.05;;;1.67;;
22015;SDS011;64992;51.698;-0.292;2023-03-01T12:53:41;2.50;;;1.98;;
22015;SDS011;64992;51.698;-0.292;2023-03-01T12:59:34;10.00;;;2.85;;
22015;SDS011;64992;51.698;-0.292;2023-03-01T13:27:29;2.85;;;1.83;;
22015;SDS011;64992;51.698;-0.292;2023-03-01T13:30:00;4.50;;;1.33;;
22015;SDS011;64992;51.698;-0.292;2023-03-01T13:44:42;1.65;;;1.20;;
22015;SDS011;64992;51.698;-0.292;2023-03-01T13:50:23;2.28;;;1.77;;
22015;SDS011;64992;51.698;-0.292;2023-03-01T13:58:59;2.53;;;1.87;;
22015;SDS011;64992;51.698;-0.292;2023-03-01T14:25:36;3.90;;;1.92;;
22015;SDS011;64992;51.698;-0.292;2023-03-01T14:34:04;2.95;;;1.80;;
22015;SDS011;64992;51.698;-0.292;2023-03-01T14:43:15;4.45;;;1.13;;
22015;SDS011;64992;51.698;-0.292;2023-03-01T14:45:46;4.22;;;1.40;;
22015;SDS011;64992;51.698;-0.292;2023-03-01T14:59:51;3.17;;;1.35;;
22015;SDS011;64992;51.698;-0.292;2023-03-01T15:02:33;1.92;;;1.20;;
22015;SDS011;64992;51.698;-0.292;2023-03-01T15:05:01;1.73;;;1.20;;
22015;SDS011;64992;51.698;-0.292;2023-03-01T15:07:41;4.90;;;1.50;;
22015;SDS011;64992;51.698;-0.292;2023-03-01T15:22:15;2.20;;;1.40;;
22015;SDS011;64992;51.698;-0.292;2023-03-01T15:42:56;2.03;;;1.38;;
22015;SDS011;64992;51.698;-0.292;2023-03-01T15:45:37;3.22;;;1.50;;
22015;SDS011;64992;51.698;-0.292;2023-03-01T15:48:05;1.83;;;1.30;;
22015;SDS011;64992;51.698;-0.292;2023-03-01T15:53:50;2.50;;;1.60;;
22015;SDS011;64992;51.698;-0.292;2023-03-01T15:59:20;1.88;;;1.60;;
22015;SDS011;64992;51.698;-0.292;2023-03-01T16:19:55;1.30;;;1.17;;
22015;SDS011;64992;51.698;-0.292;2023-03-01T16:53:33;1.90;;;1.52;;
22015;SDS011;64992;51.698;-0.292;2023-03-01T16:59:04;5.57;;;1.77;;
22015;SDS011;64992;51.698;-0.292;2023-03-01T17:16:48;2.33;;;1.52;;
22015;SDS011;64992;51.698;-0.292;2023-03-01T17:22:34;3.95;;;2.20;;
22015;SDS011;64992;51.698;-0.292;2023-03-01T17:25:00;1.80;;;1.33;;
22015;SDS011;64992;51.698;-0.292;2023-03-01T17:36:56;2.08;;;1.67;;
22015;SDS011;64992;51.698;-0.292;2023-03-01T17:54:35;5.93;;;2.20;;
22015;SDS011;64992;51.698;-0.292;2023-03-01T17:57:01;6.30;;;2.45;;
22015;SDS011;64992;51.698;-0.292;2023-03-01T17:59:27;5.10;;;2.15;;
22015;SDS011;64992;51.698;-0.292;2023-03-01T18:01:56;4.97;;;2.00;;
22015;SDS011;64992;51.698;-0.292;2023-03-01T18:04:25;9.52;;;2.60;;
22015;SDS011;64992;51.698;-0.292;2023-03-01T18:06:51;4.47;;;2.00;;
22015;SDS011;64992;51.698;-0.292;2023-03-01T18:09:18;4.18;;;2.20;;
22015;SDS011;64992;51.698;-0.292;2023-03-01T18:11:44;4.22;;;2.67;;
22015;SDS011;64992;51.698;-0.292;2023-03-01T18:14:10;4.00;;;1.90;;
22015;SDS011;64992;51.698;-0.292;2023-03-01T18:16:36;3.08;;;1.85;;
22015;SDS011;64992;51.698;-0.292;2023-03-01T18:19:04;2.45;;;1.75;;
22015;SDS011;64992;51.698;-0.292;2023-03-01T18:21:30;8.25;;;1.95;;
22015;SDS011;64992;51.698;-0.292;2023-03-01T18:23:56;2.40;;;1.88;;
22015;SDS011;64992;51.698;-0.292;2023-03-01T18:26:25;5.80;;;2.53;;
22015;SDS011;64992;51.698;-0.292;2023-03-01T18:28:54;6.22;;;2.00;;
22015;SDS011;64992;51.698;-0.292;2023-03-01T18:31:22;4.13;;;2.10;;
22015;SDS011;64992;51.698;-0.292;2023-03-01T18:33:50;4.90;;;2.42;;
22015;SDS011;64992;51.698;-0.292;2023-03-01T18:36:21;4.95;;;2.20;;
22015;SDS011;64992;51.698;-0.292;2023-03-01T18:38:48;3.95;;;1.77;;
22015;SDS011;64992;51.698;-0.292;2023-03-01T18:41:14;7.68;;;2.83;;
22015;SDS011;64992;51.698;-0.292;2023-03-01T18:43:41;10.88;;;4.22;;
22015;SDS011;64992;51.698;-0.292;2023-03-01T18:46:07;7.30;;;3.45;;
22015;SDS011;64992;51.698;-0.292;2023-03-01T18:48:33;5.53;;;2.75;;
22015;SDS011;64992;51.698;-0.292;2023-03-01T18:51:10;6.40;;;2.42;;
22015;SDS011;64992;51.698;-0.292;2023-03-01T18:53:36;3.38;;;2.20;;
22015;SDS011;64992;51.698;-0.292;2023-03-01T18:56:03;6.70;;;3.03;;
22015;SDS011;64992;51.698;-0.292;2023-03-01T18:58:29;5.72;;;2.00;;
22015;SDS011;64992;51.698;-0.292;2023-03-01T19:00:55;4.63;;;2.20;;
22015;SDS011;64992;51.698;-0.292;2023-03-01T19:03:21;5.43;;;2.88;;
22015;SDS011;64992;51.698;-0.292;2023-03-01T19:05:48;6.68;;;2.10;;
22015;SDS011;64992;51.698;-0.292;2023-03-01T19:08:14;3.72;;;1.98;;
22015;SDS011;64992;51.698;-0.292;2023-03-01T19:10:40;3.08;;;1.70;;
22015;SDS011;64992;51.698;-0.292;2023-03-01T19:13:07;3.58;;;2.00;;
22015;SDS011;64992;51.698;-0.292;2023-03-01T19:15:33;5.13;;;2.17;;
22015;SDS011;64992;51.698;-0.292;2023-03-01T19:17:59;3.65;;;1.80;;
22015;SDS011;64992;51.698;-0.292;2023-03-01T19:20:28;4.13;;;2.00;;
22015;SDS011;64992;51.698;-0.292;2023-03-01T19:22:54;5.10;;;2.08;;
22015;SDS011;64992;51.698;-0.292;2023-03-01T19:25:20;4.50;;;2.65;;
22015;SDS011;64992;51.698;-0.292;2023-03-01T19:27:47;5.10;;;2.22;;
22015;SDS011;64992;51.698;-0.292;2023-03-01T19:30:13;4.93;;;1.80;;
22015;SDS011;64992;51.698;-0.292;2023-03-01T19:32:39;1.92;;;1.73;;
22015;SDS011;64992;51.698;-0.292;2023-03-01T19:35:05;5.00;;;2.10;;
22015;SDS011;64992;51.698;-0.292;2023-03-01T19:37:34;5.20;;;2.40;;
22015;SDS011;64992;51.698;-0.292;2023-03-01T19:40:00;6.07;;;2.03;;
22015;SDS011;64992;51.698;-0.292;2023-03-01T19:42:26;3.25;;;2.40;;
22015;SDS011;64992;51.698;-0.292;2023-03-01T19:44:53;4.40;;;1.90;;
22015;SDS011;64992;51.698;-0.292;2023-03-01T19:47:20;6.70;;;2.28;;
22015;SDS011;64992;51.698;-0.292;2023-03-01T19:49:46;2.92;;;1.95;;
22015;SDS011;64992;51.698;-0.292;2023-03-01T19:52:12;4.55;;;2.13;;
22015;SDS011;64992;51.698;-0.292;2023-03-01T19:54:38;3.47;;;2.22;;
22015;SDS011;64992;51.698;-0.292;2023-03-01T19:57:05;4.00;;;2.15;;
22015;SDS011;64992;51.698;-0.292;2023-03-01T19:59:31;6.60;;;2.25;;
22015;SDS011;64992;51.698;-0.292;2023-03-01T20:01:57;4.82;;;2.42;;
22015;SDS011;64992;51.698;-0.292;2023-03-01T20:04:23;4.40;;;2.05;;
22015;SDS011;64992;51.698;-0.292;2023-03-01T20:06:50;4.63;;;2.67;;
22015;SDS011;64992;51.698;-0.292;2023-03-01T20:09:16;4.90;;;3.08;;
22015;SDS011;64992;51.698;-0.292;2023-03-01T20:11:42;3.80;;;2.70;;
22015;SDS011;64992;51.698;-0.292;2023-03-01T20:14:08;9.40;;;3.55;;
22015;SDS011;64992;51.698;-0.292;2023-03-01T20:16:36;5.32;;;3.28;;
22015;SDS011;64992;51.698;-0.292;2023-03-01T20:19:02;6.55;;;3.25;;
22015;SDS011;64992;51.698;-0.292;2023-03-01T20:21:28;5.80;;;3.08;;
22015;SDS011;64992;51.698;-0.292;2023-03-01T20:23:55;7.25;;;3.40;;
22015;SDS011;64992;51.698;-0.292;2023-03-01T20:26:21;6.78;;;3.42;;
22015;SDS011;64992;51.698;-0.292;2023-03-01T20:28:50;5.68;;;3.70;;
22015;SDS011;64992;51.698;-0.292;2023-03-01T20:31:17;6.63;;;3.50;;
22015;SDS011;64992;51.698;-0.292;2023-03-01T20:33:44;6.63;;;3.55;;
22015;SDS011;64992;51.698;-0.292;2023-03-01T20:36:10;11.95;;;4.07;;
22015;SDS011;64992;51.698;-0.292;2023-03-01T20:38:36;8.35;;;4.55;;
22015;SDS011;64992;51.698;-0.292;2023-03-01T20:41:04;8.57;;;4.00;;
22015;SDS011;64992;51.698;-0.292;2023-03-01T20:43:30;7.60;;;4.00;;
22015;SDS011;64992;51.698;-0.292;2023-03-01T20:45:57;6.35;;;3.88;;
22015;SDS011;64992;51.698;-0.292;2023-03-01T20:48:23;7.53;;;3.65;;
22015;SDS011;64992;51.698;-0.292;2023-03-01T20:50:49;6.35;;;3.13;;
22015;SDS011;64992;51.698;-0.292;2023-03-01T20:53:15;6.60;;;3.70;;
22015;SDS011;64992;51.698;-0.292;2023-03-01T20:55:41;9.65;;;4.35;;
22015;SDS011;64992;51.698;-0.292;2023-03-01T20:58:07;5.82;;;3.80;;
22015;SDS011;64992;51.698;-0.292;2023-03-01T21:00:33;8.30;;;4.78;;
22015;SDS011;64992;51.698;-0.292;2023-03-01T21:02:59;9.57;;;4.45;;
22015;SDS011;64992;51.698;-0.292;2023-03-01T21:05:27;8.27;;;4.25;;
22015;SDS011;64992;51.698;-0.292;2023-03-01T21:07:53;6.78;;;4.13;;
22015;SDS011;64992;51.698;-0.292;2023-03-01T21:10:19;6.35;;;3.85;;
22015;SDS011;64992;51.698;-0.292;2023-03-01T21:12:45;5.85;;;4.00;;
22015;SDS011;64992;51.698;-0.292;2023-03-01T21:15:11;9.13;;;3.50;;
22015;SDS011;64992;51.698;-0.292;2023-03-01T21:17:38;9.95;;;4.18;;
22015;SDS011;64992;51.698;-0.292;2023-03-01T21:20:04;7.20;;;3.75;;
22015;SDS011;64992;51.698;-0.292;2023-03-01T21:22:30;8.70;;;3.92;;
22015;SDS011;64992;51.698;-0.292;2023-03-01T21:24:58;4.32;;;3.92;;
22015;SDS011;64992;51.698;-0.292;2023-03-01T21:27:25;17.20;;;4.57;;
22015;SDS011;64992;51.698;-0.292;2023-03-01T21:29:51;13.23;;;4.65;;
22015;SDS011;64992;51.698;-0.292;2023-03-01T21:32:17;6.47;;;3.97;;
22015;SDS011;64992;51.698;-0.292;2023-03-01T21:34:43;6.50;;;3.33;;
22015;SDS011;64992;51.698;-0.292;2023-03-01T21:37:09;7.00;;;4.30;;
22015;SDS011;64992;51.698;-0.292;2023-03-01T21:39:36;7.55;;;4.20;;
22015;SDS011;64992;51.698;-0.292;2023-03-01T21:42:03;5.68;;;4.28;;
22015;SDS011;64992;51.698;-0.292;2023-03-01T21:44:30;7.32;;;4.32;;
22015;SDS011;64992;51.698;-0.292;2023-03-01T21:46:56;6.32;;;4.22;;
22015;SDS011;64992;51.698;-0.292;2023-03-01T21:49:23;8.05;;;4.30;;
22015;SDS011;64992;51.698;-0.292;2023-03-01T21:51:50;5.97;;;4.00;;
22015;SDS011;64992;51.698;-0.292;2023-03-01T21:54:17;9.70;;;4.70;;
22015;SDS011;64992;51.698;-0.292;2023-03-01T21:56:44;6.22;;;4.10;;
22015;SDS011;64992;51.698;-0.292;2023-03-01T21:59:15;6.25;;;3.42;;
22015;SDS011;64992;51.698;-0.292;2023-03-01T22:01:42;9.60;;;4.57;;
22015;SDS011;64992;51.698;-0.292;2023-03-01T22:04:08;8.80;;;4.28;;
22015;SDS011;64992;51.698;-0.292;2023-03-01T22:06:36;6.80;;;4.07;;
22015;SDS011;64992;51.698;-0.292;2023-03-01T22:09:14;6.00;;;3.92;;
22015;SDS011;64992;51.698;-0.292;2023-03-01T22:11:42;7.07;;;4.00;;
22015;SDS011;64992;51.698;-0.292;2023-03-01T22:14:09;6.15;;;3.65;;
22015;SDS011;64992;51.698;-0.292;2023-03-01T22:16:36;5.68;;;3.33;;
22015;SDS011;64992;51.698;-0.292;2023-03-01T22:19:03;4.60;;;3.47;;
22015;SDS011;64992;51.698;-0.292;2023-03-01T22:21:29;3.60;;;3.17;;
22015;SDS011;64992;51.698;-0.292;2023-03-01T22:23:55;3.83;;;3.42;;
22015;SDS011;64992;51.698;-0.292;2023-03-01T22:26:23;6.65;;;3.50;;
22015;SDS011;64992;51.698;-0.292;2023-03-01T22:28:50;8.13;;;2.70;;
22015;SDS011;64992;51.698;-0.292;2023-03-01T22:31:16;5.88;;;3.05;;
22015;SDS011;64992;51.698;-0.292;2023-03-01T22:33:42;3.67;;;2.90;;
22015;SDS011;64992;51.698;-0.292;2023-03-01T22:36:08;4.53;;;2.38;;
22015;SDS011;64992;51.698;-0.292;2023-03-01T22:38:34;2.95;;;2.20;;
22015;SDS011;64992;51.698;-0.292;2023-03-01T22:41:01;5.00;;;2.65;;
22015;SDS011;64992;51.698;-0.292;2023-03-01T22:43:28;4.38;;;2.83;;
22015;SDS011;64992;51.698;-0.292;2023-03-01T22:45:55;5.38;;;2.83;;
22015;SDS011;64992;51.698;-0.292;2023-03-01T22:48:21;3.30;;;2.80;;
22015;SDS011;64992;51.698;-0.292;2023-03-01T22:50:48;2.90;;;2.50;;
22015;SDS011;64992;51.698;-0.292;2023-03-01T22:53:14;3.08;;;2.80;;
22015;SDS011;64992;51.698;-0.292;2023-03-01T22:55:41;3.30;;;3.00;;
22015;SDS011;64992;51.698;-0.292;2023-03-01T22:58:07;5.18;;;2.67;;
22015;SDS011;64992;51.698;-0.292;2023-03-01T23:00:33;5.03;;;2.85;;
22015;SDS011;64992;51.698;-0.292;2023-03-01T23:02:59;6.28;;;2.80;;
22015;SDS011;64992;51.698;-0.292;2023-03-01T23:05:25;5.53;;;3.08;;
22015;SDS011;64992;51.698;-0.292;2023-03-01T23:07:51;3.10;;;2.60;;
22015;SDS011;64992;51.698;-0.292;2023-03-01T23:10:17;4.93;;;3.03;;
22015;SDS011;64992;51.698;-0.292;2023-03-01T23:12:43;3.65;;;2.80;;
22015;SDS011;64992;51.698;-0.292;2023-03-01T23:15:10;3.50;;;2.80;;
22015;SDS011;64992;51.698;-0.292;2023-03-01T23:17:36;3.92;;;2.17;;
22015;SDS011;64992;51.698;-0.292;2023-03-01T23:20:03;3.30;;;2.28;;
22015;SDS011;64992;51.698;-0.292;2023-03-01T23:22:38;5.53;;;2.65;;
22015;SDS011;64992;51.698;-0.292;2023-03-01T23:25:04;2.65;;;2.45;;
22015;SDS011;64992;51.698;-0.292;2023-03-01T23:27:31;4.45;;;2.47;;
22015;SDS011;64992;51.698;-0.292;2023-03-01T23:29:57;3.03;;;2.58;;
22015;SDS011;64992;51.698;-0.292;2023-03-01T23:32:23;4.57;;;2.85;;
22015;SDS011;64992;51.698;-0.292;2023-03-01T23:34:49;3.67;;;2.47;;
22015;SDS011;64992;51.698;-0.292;2023-03-01T23:37:16;4.53;;;2.72;;
22015;SDS011;64992;51.698;-0.292;2023-03-01T23:39:42;4.10;;;2.38;;
22015;SDS011;64992;51.698;-0.292;2023-03-01T23:42:08;2.38;;;2.17;;
22015;SDS011;64992;51.698;-0.292;2023-03-01T23:44:34;3.83;;;2.55;;
22015;SDS011;64992;51.698;-0.292;2023-03-01T23:47:02;3.35;;;3.05;;
22015;SDS011;64992;51.698;-0.292;2023-03-01T23:49:28;8.10;;;2.42;;
22015;SDS011;64992;51.698;-0.292;2023-03-01T23:51:54;5.13;;;2.47;;
22015;SDS011;64992;51.698;-0.292;2023-03-01T23:54:21;3.20;;;2.65;;
22015;SDS011;64992;51.698;-0.292;2023-03-01T23:56:47;2.72;;;1.90;;
22015;SDS011;64992;51.698;-0.292;2023-03-01T23:59:15;3.83;;;2.60;;
